Flight Track Log - Related Links

Times and Time Zones

All times are in EST time to prevent confusion due to time zone crossing. See the EJM826 flight status page for this flight to view local times or setup timezone preferences in your user account.

Time Position Orientation Groundspeed Altitude Reporting Facility
EST Latitude Longitude Course Direction KTS MPH feet Rate Location/Type
Wed 09:32:56 AM 29.5244 -98.4614 132° Southeast 170 196 1,400  Level Houston Center
Wed 09:33:27 AM 29.5056 -98.4372 132° Southeast 182 209 2,200 2,066 Climbing Houston Center
Wed 09:33:57 AM 29.4917 -98.4039 116° Southeast 222 255 3,500 1,671 Climbing Houston Center
Wed 09:34:46 AM 29.5300 -98.3597 45° Northeast 302 348 4,400 1,452 Climbing Houston Center
Wed 09:34:59 AM 29.5494 -98.3572 North 290 334 5,000 2,960 Climbing Houston Center
Wed 09:36:01 AM 29.6347 -98.3653 355° North 288 331 8,100 2,683 Climbing Houston Center
Wed 09:37:02 AM 29.7147 -98.3686 358° North 288 331 10,500 2,195 Climbing Houston Center
Wed 09:38:04 AM 29.8000 -98.3731 357° North 305 351 12,600 1,984 Climbing Houston Center
Wed 09:39:06 AM 29.8942 -98.3794 357° North 313 360 14,600 1,790 Climbing Houston Center
Wed 09:40:08 AM 29.9864 -98.3850 357° North 329 379 16,300 1,597 Climbing Houston Center
Wed 09:41:10 AM 30.0894 -98.3906 357° North 343 395 17,900 1,805 Climbing Houston Center
Wed 09:42:11 AM 30.1875 -98.3764 North 355 409 20,000 1,707 Climbing Houston Center
Wed 09:43:13 AM 30.2858 -98.3653 North 355 409 21,400 1,306 Climbing Houston Center
Wed 09:44:15 AM 30.3867 -98.3514 North 366 421 22,700 1,306 Climbing Houston Center
Wed 09:45:17 AM 30.4922 -98.3361 North 374 430 24,100 1,258 Climbing Houston Center
Wed 09:46:19 AM 30.6006 -98.3197 North 383 441 25,300 1,317 Climbing Houston Center
Wed 09:47:20 AM 30.7083 -98.2875 14° North 408 470 26,800 1,220 Climbing Houston Center
Wed 09:48:22 AM 30.8153 -98.2375 22° Northeast 410 472 27,800 1,113 Climbing Houston Center
Wed 09:49:24 AM 30.9428 -98.1736 23° Northeast 420 483 29,100 1,258 Climbing Houston Center
Wed 09:50:26 AM 31.0536 -98.1194 23° Northeast 424 488 30,400 1,161 Climbing Houston Center
Wed 09:51:28 AM 31.1656 -98.0631 23° Northeast 428 493 31,500 1,073 Climbing Houston Center
Wed 09:52:29 AM 31.2783 -98.0058 23° Northeast 434 499 32,600 1,073 Climbing Houston Center
Wed 09:53:31 AM 31.3936 -97.9483 23° Northeast 440 506 33,700 1,113 Climbing Houston Center
Wed 09:54:33 AM 31.5097 -97.8894 23° Northeast 446 513 34,900 1,145 Climbing Houston Center
Wed 09:55:42 AM 31.6431 -97.8256 22° Northeast 446 513 36,200 1,145 Climbing Fort Worth Center
Wed 09:56:44 AM 31.7589 -97.7650 24° Northeast 450 518 37,400 1,056 Climbing Fort Worth Center
Wed 09:57:47 AM 31.8739 -97.7047 24° Northeast 447 514 38,400 960 Climbing Fort Worth Center
Wed 09:58:49 AM 32.0019 -97.6386 24° Northeast 450 518 39,400 1,016 Climbing Fort Worth Center
Wed 09:59:51 AM 32.1172 -97.5811 23° Northeast 449 517 40,500 774 Climbing Fort Worth Center
Wed 10:00:53 AM 32.2297 -97.5217 24° Northeast 443 510 41,000 242 Climbing Fort Worth Center
Wed 10:01:55 AM 32.3475 -97.4614 23° Northeast 458 527 41,000  Level Fort Worth Center
Wed 10:02:57 AM 32.4681 -97.3969 24° Northeast 469 540 41,000  Level Fort Worth Center
Wed 10:03:59 AM 32.5767 -97.2853 41° Northeast 523 602 41,000  Level Fort Worth Center
Wed 10:05:01 AM 32.6833 -97.1189 53° Northeast 533 613 41,000  Level Fort Worth Center
Wed 10:06:03 AM 32.7725 -96.9775 53° Northeast 546 628 41,000  Level Fort Worth Center
Wed 10:07:05 AM 32.8611 -96.8369 53° Northeast 541 623 41,000  Level Fort Worth Center
Wed 10:08:07 AM 32.9506 -96.6975 53° Northeast 535 616 41,000  Level Fort Worth Center
Wed 10:09:10 AM 33.0547 -96.5314 53° Northeast 527 606 41,000  Level Fort Worth Center
Wed 10:10:12 AM 33.1442 -96.3917 53° Northeast 528 608 41,000  Level Fort Worth Center
Wed 10:11:14 AM 33.2314 -96.2522 53° Northeast 527 606 41,000  Level Fort Worth Center
Wed 10:12:16 AM 33.3164 -96.1111 54° Northeast 525 604 41,000  Level Fort Worth Center
Wed 10:13:18 AM 33.4028 -95.9697 54° Northeast 526 605 41,000  Level Fort Worth Center
Wed 10:14:20 AM 33.5092 -95.8017 53° Northeast 529 609 41,000  Level Fort Worth Center
Wed 10:15:22 AM 33.5947 -95.6592 54° Northeast 527 606 41,000  Level Fort Worth Center
Wed 10:16:24 AM 33.6744 -95.5289 54° Northeast 532 612 41,000  Level Fort Worth Center
Wed 10:17:27 AM 33.7633 -95.3858 53° Northeast 533 613 41,000  Level Fort Worth Center
Wed 10:18:29 AM 33.8681 -95.2131 54° Northeast 532 612 41,000  Level Fort Worth Center
Wed 10:19:31 AM 33.9550 -95.0694 54° Northeast 531 611 41,000  Level Fort Worth Center
Wed 10:20:33 AM 34.0433 -94.9231 54° Northeast 537 618 41,000  Level Fort Worth Center
Wed 10:21:35 AM 34.1311 -94.7761 54° Northeast 540 621 41,000  Level Fort Worth Center
Wed 10:23:07 AM 34.2700 -94.5431 54° Northeast 534 615 41,000  Level Memphis Center
Wed 10:23:39 AM 34.3050 -94.4844 54° Northeast 533 613 41,000  Level Fort Worth Center
Wed 10:24:41 AM 34.4106 -94.3056 54° Northeast 541 623 41,000  Level Fort Worth Center
Wed 10:25:43 AM 34.4964 -94.1594 54° Northeast 536 617 41,000  Level Fort Worth Center
Wed 10:26:13 AM 34.5308 -94.0986 55° Northeast 536 617 41,000  Level Memphis Center
Wed 10:27:15 AM 34.6175 -93.9525 54° Northeast 534 615 41,000  Level Memphis Center
Wed 10:28:17 AM 34.7036 -93.8039 55° Northeast 536 617 41,000  Level Memphis Center
Wed 10:29:19 AM 34.8075 -93.6250 55° Northeast 539 620 41,000  Level Memphis Center
Wed 10:30:22 AM 34.8944 -93.4756 55° Northeast 540 621 41,000  Level Memphis Center
Wed 10:31:24 AM 34.9806 -93.3256 55° Northeast 541 623 41,000  Level Memphis Center
Wed 10:32:26 AM 35.0661 -93.1756 55° Northeast 538 619 41,000  Level Memphis Center
Wed 10:33:28 AM 35.1525 -93.0258 55° Northeast 539 620 41,000  Level Memphis Center
Wed 10:34:30 AM 35.2369 -92.8756 55° Northeast 537 618 41,000  Level Memphis Center
Wed 10:35:32 AM 35.3389 -92.6950 55° Northeast 538 619 41,000  Level Memphis Center
Wed 10:36:34 AM 35.4147 -92.5611 55° Northeast 536 617 41,000  Level Memphis Center
Wed 10:37:36 AM 35.4978 -92.4103 56° Northeast 534 615 41,000  Level Memphis Center
Wed 10:38:38 AM 35.5908 -92.2458 55° Northeast 534 615 41,000  Level Memphis Center
Wed 10:39:40 AM 35.6833 -92.0778 56° Northeast 534 615 41,000  Level Memphis Center
Wed 10:40:42 AM 35.7750 -91.9128 56° Northeast 538 619 41,000  Level Memphis Center
Wed 10:41:44 AM 35.8589 -91.7594 56° Northeast 536 617 41,000  Level Memphis Center
Wed 10:42:46 AM 35.9456 -91.6036 55° Northeast 541 623 41,000  Level Memphis Center
Wed 10:43:48 AM 36.0267 -91.4517 57° Northeast 535 616 41,000  Level Memphis Center
Wed 10:44:50 AM 36.1111 -91.2994 55° Northeast 535 616 41,000  Level Memphis Center
Wed 10:45:52 AM 36.1928 -91.1469 56° Northeast 532 612 41,000  Level Memphis Center
Wed 10:46:55 AM 36.2750 -90.9933 56° Northeast 533 613 41,000  Level Memphis Center
Wed 10:47:57 AM 36.3744 -90.8092 56° Northeast 535 616 41,000  Level Memphis Center
Wed 10:48:59 AM 36.4569 -90.6542 56° Northeast 536 617 41,000  Level Memphis Center
Wed 10:50:01 AM 36.5389 -90.4989 57° Northeast 535 616 41,000  Level Memphis Center
Wed 10:51:03 AM 36.6217 -90.3431 56° Northeast 536 617 41,000  Level Memphis Center
Wed 10:52:05 AM 36.7033 -90.1881 57° Northeast 535 616 41,000  Level Memphis Center
Wed 10:53:07 AM 36.7842 -90.0322 57° Northeast 532 612 41,000  Level Memphis Center
Wed 10:54:09 AM 36.8650 -89.8767 57° Northeast 531 611 41,000  Level Memphis Center
Wed 10:55:11 AM 36.9456 -89.7225 57° Northeast 529 609 41,000  Level Memphis Center
Wed 10:56:13 AM 37.0422 -89.5364 57° Northeast 527 606 41,000  Level Memphis Center
Wed 10:57:15 AM 37.1219 -89.3803 57° Northeast 528 608 41,000  Level Memphis Center
Wed 10:58:17 AM 37.2019 -89.2239 57° Northeast 530 610 41,000 -520 Level Memphis Center
Wed 10:59:22 AM 37.2811 -89.0681 57° Northeast 528 608 39,900 -1,039 Descending Memphis Center
Wed 11:00:24 AM 37.3569 -88.9178 58° Northeast 517 595 38,800 -1,161 Descending Memphis Center
Wed 11:01:26 AM 37.4442 -88.7431 58° Northeast 497 572 37,500 -1,161 Descending Memphis Center
Wed 11:02:28 AM 37.5178 -88.5986 57° Northeast 490 564 36,400 -1,065 Descending Memphis Center
Wed 11:03:30 AM 37.5911 -88.4525 58° Northeast 491 565 35,300 -1,235 Descending Memphis Center
Wed 11:04:10 AM 37.6375 -88.3575 58° Northeast 494 568 34,300 -1,353 Descending Indianapolis Center
Wed 11:05:12 AM 37.7206 -88.1892 58° Northeast 508 585 33,000 -634 Descending Indianapolis Center
Wed 11:06:13 AM 37.7881 -88.0519 58° Northeast 511 588 33,000 -49 Level Indianapolis Center
Wed 11:07:15 AM 37.8636 -87.8981 58° Northeast 511 588 32,900  Descending Indianapolis Center
Wed 11:08:17 AM 37.9500 -87.7589 52° Northeast 502 578 33,000  Climbing Indianapolis Center
Wed 11:09:19 AM 38.0644 -87.6669 32° Northeast 482 555 32,900 -49 Descending Indianapolis Center
Wed 11:10:20 AM 38.2064 -87.5658 29° Northeast 482 555 32,900 -390 Level Indianapolis Center
Wed 11:11:22 AM 38.3264 -87.4781 30° Northeast 488 562 32,100 -1,984 Descending Indianapolis Center
Wed 11:12:24 AM 38.4472 -87.3900 30° Northeast 491 565 28,800 -3,048 Descending Indianapolis Center
Wed 11:13:26 AM 38.5639 -87.3044 30° Northeast 477 549 25,800 -2,927 Descending Indianapolis Center
Wed 11:14:27 AM 38.6822 -87.2172 30° Northeast 482 555 22,800 -2,878 Descending Indianapolis Center
Wed 11:15:29 AM 38.7989 -87.1300 30° Northeast 481 554 19,900 -2,758 Descending Indianapolis Center
Wed 11:16:31 AM 38.9111 -87.0469 30° Northeast 469 540 17,100 -2,371 Descending Indianapolis Center
Wed 11:17:33 AM 39.0161 -86.9697 30° Northeast 442 509 15,000 -1,659 Descending Indianapolis Center
Wed 11:18:34 AM 39.1108 -86.9006 30° Northeast 404 465 13,700 -1,512 Descending Indianapolis Center
Wed 11:19:36 AM 39.2028 -86.8322 30° Northeast 378 435 11,900 -1,306 Descending Indianapolis Center
Wed 11:20:38 AM 39.2850 -86.7686 31° Northeast 353 406 11,000 -439 Descending Indianapolis Center
Wed 11:21:39 AM 39.3703 -86.7050 30° Northeast 353 406 11,000 -439 Level Indianapolis Center
Wed 11:22:41 AM 39.4625 -86.6075 39° Northeast 353 406 10,100 -1,113 Descending Indianapolis Center
Wed 11:23:43 AM 39.5164 -86.5175 52° Northeast 332 382 8,700 -1,500 Descending Indianapolis Center
Wed 11:24:45 AM 39.5661 -86.4303 53° Northeast 311 358 7,000 -780 Descending Indianapolis Center
Wed 11:25:46 AM 39.6083 -86.3519 55° Northeast 278 320 7,100 49 Climbing Indianapolis Center
Wed 11:26:48 AM 39.6414 -86.2700 62° Northeast 265 305 7,100 -484 Level Indianapolis Center
Wed 11:27:50 AM 39.6858 -86.1761 58° Northeast 261 300 6,100 -968 Descending Indianapolis Center
Wed 11:28:52 AM 39.7292 -86.1022 53° Northeast 264 304 5,100 -976 Descending Indianapolis Center
Wed 11:29:53 AM 39.7806 -86.0422 42° Northeast 254 292 4,100 -537 Descending Indianapolis Center
Wed 11:30:55 AM 39.8358 -85.9972 32° Northeast 255 293 4,000 -194 Descending Indianapolis Center
Wed 11:31:57 AM 39.8742 -86.0456 316° Northwest 223 257 3,700 -488 Descending Indianapolis Center
Wed 11:32:58 AM 39.8514 -86.1142 247° West 190 219 3,000 -341 Descending Indianapolis Center
Wed 11:34:00 AM 39.8186 -86.1536 223° Southwest 170 196 3,000  Level Indianapolis Center
Wed 11:35:02 AM 39.7886 -86.1919 224° Southwest 161 185 3,000 -390 Level Indianapolis Center
Wed 11:36:03 AM 39.7661 -86.2208 225° Southwest 136 157 2,200 -683 Descending Indianapolis Center
Wed 11:37:05 AM 39.7425 -86.2503 224° Southwest 122 140 1,600 -629 Descending Indianapolis Center
Wed 11:38:07 AM 39.7131 -86.2875 224° Southwest 124 143 900 -677 Descending Indianapolis Center

Login

Don't have an account? Register now (free) for customized features, flight alerts, and more!